Time;durP1;ratioP1;P1;durP2;ratioP2;P2;SDS_P1;SDS_P2;PMS_P1;PMS_P2;Temp;Humidity;BMP_temperature;BMP_pressure;BME280_temperature;BME280_humidity;BME280_pressure;Samples;Min_cycle;Max_cycle;Signal;HPM_P1;HPM_P2
2023/05/10 00:02:25;;;;;;;3.13;0.68;;;;;;;13.00;100.00;98231.19;5012206;28;20494;-74
2023/05/10 00:04:50;;;;;;;0.88;0.70;;;;;;;12.97;100.00;98230.78;4998290;28;20030;-74
2023/05/10 00:07:17;;;;;;;3.00;0.75;;;;;;;12.83;100.00;98224.75;4995087;28;20029;-75
2023/05/10 00:09:42;;;;;;;1.13;0.75;;;;;;;12.85;100.00;98234.31;4997054;28;20021;-74
2023/05/10 00:12:08;;;;;;;1.70;0.90;;;;;;;12.82;100.00;98239.41;5009269;28;20030;-75
2023/05/10 00:14:33;;;;;;;3.75;0.90;;;;;;;12.72;100.00;98227.19;5015098;28;20071;-75
2023/05/10 00:16:58;;;;;;;1.05;0.50;;;;;;;12.75;100.00;98216.94;5012709;28;20017;-75
2023/05/10 00:19:24;;;;;;;2.92;0.65;;;;;;;12.66;100.00;98225.41;4995833;28;20177;-74
2023/05/10 00:21:49;;;;;;;1.55;0.52;;;;;;;12.68;100.00;98238.75;5012850;28;20026;-75
2023/05/10 00:24:14;;;;;;;2.08;0.30;;;;;;;12.58;100.00;98238.50;5009157;28;20030;-75
2023/05/10 00:26:40;;;;;;;1.05;0.50;;;;;;;12.55;100.00;98222.66;5012654;28;20029;-74
2023/05/10 00:29:05;;;;;;;0.47;0.40;;;;;;;12.67;100.00;98231.66;5033200;28;20036;-75
2023/05/10 00:31:31;;;;;;;0.98;0.55;;;;;;;12.54;100.00;98231.84;5026280;28;20021;-75
2023/05/10 00:33:56;;;;;;;1.33;0.52;;;;;;;12.54;100.00;98243.53;5020443;28;20114;-75
2023/05/10 00:36:21;;;;;;;0.93;0.50;;;;;;;12.57;100.00;98232.22;5021470;28;20030;-75
2023/05/10 00:38:47;;;;;;;1.23;0.60;;;;;;;12.45;100.00;98226.75;5002262;28;20030;-75
2023/05/10 00:41:12;;;;;;;0.68;0.52;;;;;;;12.44;100.00;98233.25;5007274;28;20049;-75
2023/05/10 00:43:37;;;;;;;2.95;0.60;;;;;;;12.41;100.00;98233.69;5017498;28;20030;-75
2023/05/10 00:46:04;;;;;;;1.67;0.80;;;;;;;12.54;100.00;98243.53;5010966;28;20021;-75
2023/05/10 00:48:29;;;;;;;3.13;0.50;;;;;;;12.54;100.00;98240.00;5012462;28;20041;-75
2023/05/10 00:50:55;;;;;;;1.90;0.63;;;;;;;12.52;100.00;98239.38;5008352;28;20029;-75
2023/05/10 00:53:21;;;;;;;1.20;0.68;;;;;;;12.46;100.00;98236.53;4992084;28;20111;-75
2023/05/10 00:55:46;;;;;;;0.90;0.73;;;;;;;12.38;100.00;98236.03;5016396;28;20037;-75
2023/05/10 00:58:12;;;;;;;0.65;0.63;;;;;;;12.46;100.00;98247.38;5015576;28;20050;-74
2023/05/10 01:00:38;;;;;;;1.17;0.60;;;;;;;12.44;100.00;98233.25;5006027;28;20365;-74
2023/05/10 01:03:03;;;;;;;1.38;0.60;;;;;;;12.45;100.00;98248.47;5000390;28;20032;-74
2023/05/10 01:05:29;;;;;;;0.80;0.60;;;;;;;12.35;100.00;98240.03;5004725;28;20055;-75
2023/05/10 01:07:54;;;;;;;1.10;0.65;;;;;;;12.38;100.00;98245.00;5010336;28;20026;-75
2023/05/10 01:10:20;;;;;;;0.90;0.65;;;;;;;12.41;100.00;98252.66;5013735;28;20028;-75
2023/05/10 01:12:46;;;;;;;0.70;0.60;;;;;;;12.41;100.00;98263.53;4994002;28;20034;-75
2023/05/10 01:15:12;;;;;;;1.40;0.80;;;;;;;12.40;100.00;98259.16;5012185;28;20190;-75
2023/05/10 01:17:41;;;;;;;1.20;1.00;;;;;;;12.35;100.00;98244.63;5085500;22;20086;-73
2023/05/10 01:20:09;;;;;;;1.38;0.88;;;;;;;12.38;100.00;98255.03;5028542;28;20442;-74
2023/05/10 01:22:46;;;;;;;1.08;0.90;;;;;;;12.28;100.00;98263.69;5022140;28;20040;-75
2023/05/10 01:25:37;;;;;;;0.80;0.80;;;;;;;12.35;100.00;98255.50;5029205;28;20083;-75
2023/05/10 01:28:47;;;;;;;1.17;0.77;;;;;;;12.28;100.00;98258.28;5027652;28;20030;-75
2023/05/10 01:31:12;;;;;;;1.23;0.93;;;;;;;12.31;100.00;98263.22;4992225;28;20037;-75
2023/05/10 01:33:58;;;;;;;1.10;0.75;;;;;;;12.25;100.00;98256.03;5015408;28;20387;-74
2023/05/10 01:36:30;;;;;;;1.77;1.00;;;;;;;12.19;100.00;98267.78;5014077;28;20025;-74
2023/05/10 01:39:20;;;;;;;1.30;0.93;;;;;;;12.05;100.00;98245.41;5011231;28;20022;-74
2023/05/10 01:41:48;;;;;;;1.65;0.90;;;;;;;12.20;100.00;98264.00;4994184;28;20121;-75
2023/05/10 01:44:32;;;;;;;2.92;1.00;;;;;;;12.15;100.00;98272.00;5006805;28;20056;-74
2023/05/10 01:47:05;;;;;;;1.45;1.10;;;;;;;12.02;100.00;98260.22;5007044;28;20036;-74
2023/05/10 01:49:34;;;;;;;1.35;0.90;;;;;;;12.03;100.00;98264.63;5008713;28;20026;-75
2023/05/10 01:52:12;;;;;;;1.38;1.20;;;;;;;11.99;100.00;98259.88;5008944;28;20112;-75
2023/05/10 01:54:49;;;;;;;1.30;1.00;;;;;;;11.97;100.00;98261.97;4999096;28;20022;-75
2023/05/10 01:57:17;;;;;;;1.95;1.20;;;;;;;12.09;100.00;98289.19;5010273;28;20558;-74
2023/05/10 01:59:45;;;;;;;1.60;1.30;;;;;;;12.02;100.00;98265.66;5010684;28;20062;-75
2023/05/10 02:02:12;;;;;;;2.08;1.27;;;;;;;12.02;100.00;98276.50;5008856;28;20022;-75
2023/05/10 02:04:40;;;;;;;1.40;1.25;;;;;;;12.01;100.00;98274.84;5009086;28;20025;-75
2023/05/10 02:07:07;;;;;;;1.60;1.25;;;;;;;11.88;100.00;98258.75;4991041;28;20116;-74
2023/05/10 02:09:34;;;;;;;4.70;1.25;;;;;;;11.70;100.00;98243.25;5008052;28;20026;-74
2023/05/10 02:12:02;;;;;;;1.48;1.23;;;;;;;11.96;100.00;98290.97;5005515;28;20030;-74
2023/05/10 02:14:30;;;;;;;4.80;1.38;;;;;;;11.85;100.00;98278.97;5007963;28;20049;-75
2023/05/10 02:16:56;;;;;;;2.35;1.52;;;;;;;11.97;100.00;98292.66;4999620;28;20040;-75
2023/05/10 02:19:23;;;;;;;2.50;1.40;;;;;;;11.72;100.00;98262.00;5012487;28;20029;-75
2023/05/10 02:21:51;;;;;;;1.98;1.58;;;;;;;11.91;100.00;98296.22;5016801;28;20401;-74
2023/05/10 02:24:17;;;;;;;2.13;1.52;;;;;;;11.85;100.00;98294.41;5017580;28;20032;-75
2023/05/10 02:26:45;;;;;;;6.18;1.50;;;;;;;11.93;100.00;98307.69;5009123;28;20454;-74
2023/05/10 02:29:12;;;;;;;2.40;1.40;;;;;;;11.99;100.00;98309.50;5007415;28;20029;-74
2023/05/10 02:31:38;;;;;;;3.65;1.52;;;;;;;11.85;100.00;98300.66;4993884;28;20414;-74
2023/05/10 02:34:08;;;;;;;3.13;2.05;;;;;;;11.84;100.00;98298.16;4994094;28;20038;-74
2023/05/10 02:36:34;;;;;;;4.20;1.92;;;;;;;11.88;100.00;98304.00;5027360;28;20080;-74
2023/05/10 02:39:01;;;;;;;4.32;1.52;;;;;;;11.79;100.00;98293.41;4998793;28;20071;-74
2023/05/10 02:41:28;;;;;;;2.75;1.92;;;;;;;11.83;100.00;98307.34;4999831;28;20026;-74
2023/05/10 02:43:57;;;;;;;5.72;2.00;;;;;;;11.75;100.00;98307.63;5010234;28;20042;-74
2023/05/10 02:46:23;;;;;;;4.40;1.85;;;;;;;11.67;100.00;98305.22;5011168;28;20498;-75
2023/05/10 02:48:48;;;;;;;3.95;1.90;;;;;;;11.82;100.00;98321.97;5002940;28;20041;-74
2023/05/10 02:51:18;;;;;;;3.30;2.05;;;;;;;11.84;100.00;98336.94;5008959;28;20026;-74
2023/05/10 02:53:44;;;;;;;;;;;;;;;11.87;100.00;98327.56;4984770;28;20112;-75
2023/05/10 02:56:17;;;;;;;2.70;1.77;;;;;;;11.85;100.00;98322.31;5004854;28;19936;-75
2023/05/10 02:58:43;;;;;;;3.85;2.10;;;;;;;11.76;100.00;98309.28;4996565;28;20060;-75
2023/05/10 03:01:08;;;;;;;2.13;1.80;;;;;;;11.48;100.00;98264.53;5005255;28;20480;-74
2023/05/10 03:03:33;;;;;;;1.88;1.42;;;;;;;11.76;100.00;98317.41;5012019;28;20054;-74
2023/05/10 03:05:59;;;;;;;2.95;1.92;;;;;;;11.79;100.00;98306.97;4997721;28;20041;-74
2023/05/10 03:08:24;;;;;;;2.15;1.80;;;;;;;11.81;100.00;98320.28;4992061;28;20037;-75
2023/05/10 03:11:30;;;;;;;2.70;1.90;;;;;;;11.80;100.00;98311.31;4999477;28;20026;-75
2023/05/10 03:14:13;;;;;;;5.70;1.88;;;;;;;11.92;100.00;98325.03;4981281;28;20034;-75
2023/05/10 03:16:46;;;;;;;3.00;1.90;;;;;;;11.88;100.00;98315.66;5014442;28;20534;-76
2023/05/10 03:19:18;;;;;;;2.80;1.92;;;;;;;11.93;100.00;98321.25;4986516;28;20028;-76
2023/05/10 03:21:49;;;;;;;3.08;2.22;;;;;;;11.96;100.00;98328.91;5016820;28;20030;-79
2023/05/10 03:24:16;;;;;;;2.47;1.90;;;;;;;11.91;100.00;98315.22;4999125;28;20037;-75
2023/05/10 03:26:44;;;;;;;4.05;2.13;;;;;;;11.93;100.00;98329.38;4996718;28;20033;-80
2023/05/10 03:29:12;;;;;;;3.27;2.30;;;;;;;11.87;100.00;98316.72;5021563;28;20372;-80
2023/05/10 03:31:38;;;;;;;4.97;2.67;;;;;;;11.94;100.00;98332.91;5000295;28;20293;-77
2023/05/10 03:34:04;;;;;;;6.95;2.95;;;;;;;11.92;100.00;98327.72;5000905;28;20033;-83
2023/05/10 03:36:29;;;;;;;4.43;2.60;;;;;;;11.94;100.00;98327.50;5024656;28;20160;-86
2023/05/10 03:38:55;;;;;;;3.65;2.58;;;;;;;11.92;100.00;98329.59;5010759;28;20053;-79
2023/05/10 03:41:21;;;;;;;6.18;2.70;;;;;;;11.99;100.00;98335.78;5023193;28;20107;-78
2023/05/10 03:43:46;;;;;;;4.97;2.90;;;;;;;11.85;100.00;98302.53;5017219;28;20034;-79
2023/05/10 03:46:11;;;;;;;6.10;3.58;;;;;;;11.99;100.00;98333.06;4995546;28;20041;-77
2023/05/10 03:48:36;;;;;;;5.05;3.30;;;;;;;12.05;100.00;98346.56;5016895;28;20049;-76
2023/05/10 03:51:02;;;;;;;6.57;3.15;;;;;;;11.98;100.00;98337.66;5006312;28;20017;-77
2023/05/10 03:53:27;;;;;;;4.72;3.25;;;;;;;12.01;100.00;98337.22;5020356;28;20025;-82
2023/05/10 03:55:53;;;;;;;5.50;3.50;;;;;;;12.04;100.00;98342.19;5004139;28;20105;-77
2023/05/10 03:58:18;;;;;;;5.13;3.25;;;;;;;12.13;100.00;98344.59;4996828;28;20048;-77
2023/05/10 04:00:45;;;;;;;7.25;3.15;;;;;;;12.11;100.00;98342.13;5012848;28;20046;-85
2023/05/10 04:03:11;;;;;;;5.45;3.47;;;;;;;12.03;100.00;98337.81;4997158;28;20029;-77
2023/05/10 04:05:36;;;;;;;6.57;3.60;;;;;;;12.09;100.00;98343.41;5002337;28;20036;-76
2023/05/10 04:08:02;;;;;;;7.32;4.10;;;;;;;12.08;100.00;98342.59;5016894;28;20092;-75
2023/05/10 04:10:28;;;;;;;7.57;4.30;;;;;;;11.89;100.00;98330.84;5014194;28;20045;-75
2023/05/10 04:15:35;;;;;;;7.57;4.35;;;;;;;12.05;100.00;98360.13;5028518;28;20049;-49
2023/05/10 04:18:01;;;;;;;7.32;4.68;;;;;;;12.01;100.00;98353.47;5016752;28;20037;-49
2023/05/10 04:20:26;;;;;;;8.98;4.90;;;;;;;12.06;100.00;98353.66;5007071;28;20205;-49
2023/05/10 04:22:52;;;;;;;9.40;5.15;;;;;;;12.09;100.00;98356.97;5016468;28;20378;-49
2023/05/10 04:25:17;;;;;;;10.05;5.70;;;;;;;12.11;100.00;98363.00;5017743;28;20033;-52
2023/05/10 04:27:43;;;;;;;9.38;5.85;;;;;;;12.14;100.00;98359.84;5013195;28;20067;-52
2023/05/10 04:30:08;;;;;;;8.63;5.45;;;;;;;12.11;100.00;98357.56;5016721;28;20487;-51
2023/05/10 04:32:34;;;;;;;8.68;5.15;;;;;;;12.18;100.00;98364.59;5022052;28;20033;-51
2023/05/10 04:34:59;;;;;;;8.45;5.25;;;;;;;12.25;100.00;98364.50;5018777;28;20022;-51
2023/05/10 04:37:24;;;;;;;9.10;5.20;;;;;;;12.35;100.00;98366.72;5016139;28;20063;-51
2023/05/10 04:39:50;;;;;;;8.52;4.60;;;;;;;12.32;100.00;98365.28;5009558;28;20021;-51
2023/05/10 04:42:15;;;;;;;6.40;4.55;;;;;;;12.39;100.00;98360.63;5011899;28;20055;-51
2023/05/10 04:44:41;;;;;;;7.82;4.38;;;;;;;12.27;100.00;98365.94;5011083;28;20087;-51
2023/05/10 04:47:06;;;;;;;5.40;4.22;;;;;;;12.34;100.00;98365.88;5011219;28;20088;-51
2023/05/10 04:49:32;;;;;;;7.70;4.57;;;;;;;12.39;100.00;98357.03;5012821;28;20029;-51
2023/05/10 04:51:57;;;;;;;11.50;4.97;;;;;;;12.34;100.00;98373.16;5017766;28;20100;-51
2023/05/10 04:54:22;;;;;;;7.78;4.38;;;;;;;12.35;100.00;98372.97;5013026;28;20056;-51
2023/05/10 04:56:48;;;;;;;6.13;4.03;;;;;;;12.26;100.00;98377.84;5017110;28;20071;-51
2023/05/10 04:59:13;;;;;;;8.25;4.68;;;;;;;12.41;100.00;98376.66;5002360;28;20033;-51
2023/05/10 05:01:39;;;;;;;6.60;4.70;;;;;;;12.50;100.00;98384.28;5003972;28;20083;-51
2023/05/10 05:04:05;;;;;;;8.13;4.10;;;;;;;12.47;100.00;98379.31;5024446;28;20034;-51
2023/05/10 05:06:30;;;;;;;5.57;3.97;;;;;;;12.56;100.00;98377.09;5014434;28;20095;-51
2023/05/10 05:08:56;;;;;;;8.98;3.78;;;;;;;12.61;100.00;98366.41;5009200;28;20558;-51
2023/05/10 05:11:21;;;;;;;5.63;3.30;;;;;;;12.52;100.00;98362.31;5018226;28;20465;-51
2023/05/10 05:13:46;;;;;;;4.82;3.45;;;;;;;12.49;100.00;98369.03;5009358;28;20179;-50
2023/05/10 05:16:12;;;;;;;6.07;3.30;;;;;;;12.50;100.00;98376.13;5015963;28;20025;-51
2023/05/10 05:18:37;;;;;;;5.28;3.03;;;;;;;12.49;100.00;98374.44;5012514;28;20461;-51
2023/05/10 05:21:03;;;;;;;6.97;2.90;;;;;;;12.47;100.00;98376.59;5014437;28;20388;-51
2023/05/10 05:23:28;;;;;;;7.63;3.58;;;;;;;12.52;100.00;98375.06;5004366;28;20029;-51
2023/05/10 05:25:54;;;;;;;7.15;2.85;;;;;;;12.78;100.00;98374.75;5007572;28;20025;-51
2023/05/10 05:28:20;;;;;;;6.50;3.45;;;;;;;12.92;100.00;98372.69;5013710;28;20091;-51
2023/05/10 05:30:46;;;;;;;4.95;2.90;;;;;;;13.04;100.00;98378.16;5020941;28;20041;-51
2023/05/10 05:33:13;;;;;;;5.90;2.67;;;;;;;13.37;100.00;98375.84;5024478;28;20056;-51
2023/05/10 05:35:38;;;;;;;5.32;2.38;;;;;;;13.25;100.00;98374.13;5010956;28;20368;-51
2023/05/10 05:38:04;;;;;;;4.38;2.55;;;;;;;13.62;100.00;98363.97;5016656;28;20520;-51
2023/05/10 05:40:29;;;;;;;4.93;2.42;;;;;;;13.67;100.00;98358.66;5009827;28;20030;-51
2023/05/10 05:42:55;;;;;;;4.20;2.47;;;;;;;13.65;100.00;98354.50;5014281;28;20034;-51
2023/05/10 05:45:20;;;;;;;2.85;1.95;;;;;;;13.65;100.00;98352.66;5009376;28;20370;-51
2023/05/10 05:47:46;;;;;;;5.03;2.50;;;;;;;13.70;100.00;98347.34;5015690;28;20554;-51
2023/05/10 05:50:12;;;;;;;3.25;2.50;;;;;;;13.63;100.00;98348.50;5019454;28;20037;-51
2023/05/10 05:52:37;;;;;;;5.93;3.03;;;;;;;13.50;100.00;98352.25;5014045;28;20017;-51
2023/05/10 05:55:03;;;;;;;2.72;2.33;;;;;;;13.55;100.00;98358.66;5020950;28;20414;-51
2023/05/10 05:57:28;;;;;;;3.90;2.05;;;;;;;13.78;100.00;98357.00;5011635;28;20025;-51
2023/05/10 05:59:54;;;;;;;3.63;2.75;;;;;;;14.09;100.00;98355.84;5014346;28;20029;-60
2023/05/10 06:02:19;;;;;;;7.72;2.20;;;;;;;14.15;100.00;98359.53;5021839;28;20044;-60
2023/05/10 06:04:45;;;;;;;2.22;1.85;;;;;;;14.43;100.00;98339.72;5010670;28;20037;-61
2023/05/10 06:07:10;;;;;;;4.95;2.03;;;;;;;14.45;100.00;98345.75;5004278;28;20033;-60
2023/05/10 06:09:35;;;;;;;3.08;2.08;;;;;;;14.44;100.00;98338.66;5013071;28;20037;-60
2023/05/10 06:12:01;;;;;;;3.75;2.08;;;;;;;14.38;100.00;98348.63;5010861;28;20116;-59
2023/05/10 06:14:27;;;;;;;3.17;2.20;;;;;;;14.58;100.00;98342.78;5011780;28;20045;-60
2023/05/10 06:16:52;;;;;;;2.78;1.80;;;;;;;14.74;100.00;98348.56;5018371;28;20029;-50
2023/05/10 06:19:18;;;;;;;4.18;1.88;;;;;;;14.63;100.00;98340.19;5021519;28;20029;-50
2023/05/10 06:21:43;;;;;;;5.68;1.92;;;;;;;14.75;100.00;98344.75;5005162;28;20021;-50
2023/05/10 06:24:10;;;;;;;3.67;1.83;;;;;;;14.46;100.00;98344.66;5007181;28;20037;-60
2023/05/10 06:26:35;;;;;;;3.80;1.80;;;;;;;14.76;100.00;98346.41;5023551;28;20049;-60
2023/05/10 06:29:01;;;;;;;2.92;2.10;;;;;;;14.90;100.00;98342.34;5019728;28;20057;-60
2023/05/10 06:31:26;;;;;;;4.88;1.85;;;;;;;14.64;100.00;98347.25;5005788;28;20087;-50
2023/05/10 06:33:52;;;;;;;3.75;2.00;;;;;;;14.72;100.00;98350.69;5028576;28;20029;-50
2023/05/10 06:36:17;;;;;;;3.25;2.03;;;;;;;14.55;100.00;98345.19;5014268;28;20033;-50
2023/05/10 06:38:44;;;;;;;2.58;2.33;;;;;;;14.68;100.00;98355.78;5011397;28;20112;-50
2023/05/10 06:41:09;;;;;;;4.22;1.98;;;;;;;14.92;100.00;98355.72;5031688;28;20030;-50
2023/05/10 06:43:34;;;;;;;2.88;2.13;;;;;;;14.77;100.00;98354.34;5027241;28;20033;-50
2023/05/10 06:46:01;;;;;;;3.45;1.90;;;;;;;14.61;100.00;98355.91;5018019;28;20120;-50
2023/05/10 06:48:26;;;;;;;4.28;1.90;;;;;;;14.62;100.00;98359.50;5016429;28;20125;-50
2023/05/10 06:50:52;;;;;;;5.75;1.98;;;;;;;14.60;100.00;98362.44;5010185;28;20120;-50
2023/05/10 06:53:17;;;;;;;4.55;1.58;;;;;;;14.85;100.00;98358.56;5020002;28;20033;-50
2023/05/10 06:55:43;;;;;;;2.67;1.65;;;;;;;14.96;100.00;98360.44;5014140;28;20056;-50
2023/05/10 06:58:08;;;;;;;2.33;1.50;;;;;;;14.85;100.00;98367.56;5020491;28;20040;-51
2023/05/10 07:00:34;;;;;;;2.58;1.52;;;;;;;14.76;100.00;98358.13;5011249;28;20029;-50
2023/05/10 07:02:59;;;;;;;3.50;1.58;;;;;;;14.63;100.00;98358.41;5015941;28;20040;-50
2023/05/10 07:05:24;;;;;;;7.78;1.70;;;;;;;14.40;100.00;98365.50;5024018;28;20933;-50
2023/05/10 07:07:50;;;;;;;3.03;1.45;;;;;;;14.57;100.00;98365.66;5020706;28;20550;-50
2023/05/10 07:10:17;;;;;;;3.75;1.50;;;;;;;14.67;100.00;98368.59;5023269;28;20021;-50
2023/05/10 07:12:43;;;;;;;2.35;1.38;;;;;;;14.76;100.00;98369.03;5022192;28;20030;-50
2023/05/10 07:15:09;;;;;;;2.83;1.10;;;;;;;15.01;100.00;98370.59;5015418;28;20083;-50
2023/05/10 07:17:34;;;;;;;1.40;1.17;;;;;;;15.10;100.00;98375.44;5015776;28;20377;-50
2023/05/10 07:20:01;;;;;;;1.98;1.52;;;;;;;15.06;100.00;98373.41;5022934;28;20041;-50
2023/05/10 07:22:26;;;;;;;4.70;1.40;;;;;;;15.39;100.00;98371.88;5014995;28;20416;-50
2023/05/10 07:24:52;;;;;;;1.85;1.23;;;;;;;15.41;100.00;98369.72;5003924;28;20044;-60
2023/05/10 07:27:17;;;;;;;1.88;1.20;;;;;;;15.12;100.00;98367.84;5007964;28;20052;-60
2023/05/10 07:29:43;;;;;;;2.63;1.15;;;;;;;15.27;100.00;98371.91;5027141;28;20083;-60
2023/05/10 07:32:08;;;;;;;1.30;1.10;;;;;;;15.17;100.00;98371.72;5030769;28;20029;-60
2023/05/10 07:34:34;;;;;;;4.55;1.40;;;;;;;15.03;100.00;98380.19;5031714;28;20030;-60
2023/05/10 07:37:00;;;;;;;2.13;1.20;;;;;;;15.22;100.00;98377.25;5014277;28;20106;-60
2023/05/10 07:39:28;;;;;;;2.80;1.10;;;;;;;15.50;100.00;98377.25;5022656;28;20031;-60
2023/05/10 07:41:54;;;;;;;4.20;1.35;;;;;;;15.57;100.00;98372.47;5034643;28;20061;-51
2023/05/10 07:44:20;;;;;;;2.00;1.08;;;;;;;15.68;100.00;98373.47;5021588;28;20456;-50
2023/05/10 07:46:46;;;;;;;7.68;1.10;;;;;;;15.61;100.00;98371.97;5017746;28;20040;-50
2023/05/10 07:49:11;;;;;;;1.27;0.90;;;;;;;15.48;100.00;98379.41;5017039;28;20445;-50
2023/05/10 07:51:37;;;;;;;1.10;0.80;;;;;;;15.48;100.00;98370.38;5024851;22;20079;-52
2023/05/10 07:54:04;;;;;;;1.05;0.90;;;;;;;15.63;100.00;98372.56;5027342;28;20060;-60
2023/05/10 07:56:31;;;;;;;2.03;1.00;;;;;;;15.41;100.00;98380.63;5025216;28;20112;-60
2023/05/10 07:58:58;;;;;;;4.38;1.08;;;;;;;15.69;100.00;98382.50;5012930;28;20044;-60
2023/05/10 08:01:23;;;;;;;4.03;0.70;;;;;;;16.30;100.00;98369.84;5015147;28;20032;-60
2023/05/10 08:03:50;;;;;;;0.80;0.73;;;;;;;16.72;100.00;98363.84;5014591;28;20128;-60
2023/05/10 08:06:17;;;;;;;2.08;0.70;;;;;;;16.94;100.00;98363.84;5012995;28;20030;-61
2023/05/10 08:08:42;;;;;;;1.40;0.82;;;;;;;17.25;100.00;98358.72;5014695;28;20033;-61
2023/05/10 08:11:08;;;;;;;0.70;0.50;;;;;;;17.67;100.00;98369.78;5017640;28;20496;-61
2023/05/10 08:13:33;;;;;;;1.15;0.57;;;;;;;17.57;100.00;98363.41;5036017;28;20017;-61
2023/05/10 08:15:59;;;;;;;3.30;0.70;;;;;;;17.27;100.00;98365.59;5019419;28;20477;-60
2023/05/10 08:18:24;;;;;;;1.05;0.40;;;;;;;17.67;100.00;98374.44;5041130;28;20021;-61
2023/05/10 08:20:50;;;;;;;0.95;0.50;;;;;;;17.62;100.00;98367.00;5026948;28;20030;-61
2023/05/10 08:23:15;;;;;;;0.47;0.45;;;;;;;18.03;100.00;98369.31;5035800;28;20067;-61
2023/05/10 08:25:41;;;;;;;0.40;0.30;;;;;;;17.45;100.00;98361.66;5009620;28;20048;-61
2023/05/10 08:28:06;;;;;;;0.35;0.30;;;;;;;17.13;100.00;98369.78;5028990;28;20538;-61
2023/05/10 08:30:32;;;;;;;1.90;0.60;;;;;;;16.99;100.00;98361.19;5022556;28;20690;-61
2023/05/10 08:32:57;;;;;;;1.13;0.47;;;;;;;17.03;100.00;98375.19;5032081;28;20032;-61
2023/05/10 08:35:22;;;;;;;0.35;0.30;;;;;;;17.03;100.00;98373.25;5013906;28;20548;-61
2023/05/10 08:37:48;;;;;;;1.08;0.32;;;;;;;16.86;100.00;98376.06;5014783;28;20129;-61
2023/05/10 08:40:14;;;;;;;2.17;0.50;;;;;;;17.15;100.00;98366.81;5018014;28;20017;-61
2023/05/10 08:42:47;;;;;;;0.50;0.40;;;;;;;16.95;100.00;98372.88;5011830;28;20470;-61
2023/05/10 08:45:13;;;;;;;0.52;0.30;;;;;;;16.93;100.00;98375.06;5034752;28;20034;-61
2023/05/10 08:47:39;;;;;;;2.38;0.85;;;;;;;17.14;100.00;98381.56;5017275;28;20033;-61
2023/05/10 08:50:06;;;;;;;0.30;0.25;;;;;;;16.93;100.00;98375.06;5014745;28;20030;-61
2023/05/10 08:52:33;;;;;;;2.15;0.32;;;;;;;16.97;100.00;98378.91;5040215;28;20030;-61
2023/05/10 08:54:58;;;;;;;0.57;0.20;;;;;;;16.72;100.00;98385.69;5029262;28;20025;-61
2023/05/10 08:57:24;;;;;;;0.13;0.13;;;;;;;17.07;100.00;98389.97;5031030;28;20029;-62
2023/05/10 08:59:50;;;;;;;2.05;0.30;;;;;;;17.55;100.00;98384.72;5017204;28;20029;-61
2023/05/10 09:02:18;;;;;;;2.53;0.30;;;;;;;17.88;100.00;98380.94;5032427;28;20079;-52
2023/05/10 09:04:43;;;;;;;0.57;0.25;;;;;;;18.10;100.00;98386.31;5031462;28;20095;-52
2023/05/10 09:07:08;;;;;;;1.58;0.30;;;;;;;18.27;100.00;98388.91;5022374;28;20446;-52
2023/05/10 09:09:36;;;;;;;1.17;0.38;;;;;;;18.31;100.00;98379.91;5029007;28;20473;-52
2023/05/10 09:12:01;;;;;;;0.57;0.30;;;;;;;18.09;100.00;98385.50;5032484;28;20045;-62
2023/05/10 09:14:27;;;;;;;0.63;0.20;;;;;;;18.15;100.00;98402.78;5021560;28;20078;-62
2023/05/10 09:16:54;;;;;;;1.17;0.22;;;;;;;17.44;100.00;98403.75;5010033;28;20061;-62
2023/05/10 09:19:20;;;;;;;1.05;0.32;;;;;;;16.94;100.00;98406.75;5014689;28;20053;-62
2023/05/10 09:21:45;;;;;;;0.28;0.20;;;;;;;16.95;100.00;98408.41;5026332;28;20507;-61
2023/05/10 09:24:11;;;;;;;0.28;0.20;;;;;;;16.86;100.00;98414.31;5016259;28;20029;-61
2023/05/10 09:26:47;;;;;;;0.80;0.40;;;;;;;16.88;100.00;98422.25;5007791;28;20117;-62
2023/05/10 09:29:13;;;;;;;1.58;0.40;;;;;;;17.30;100.00;98410.72;5011978;28;20116;-61
2023/05/10 09:31:56;;;;;;;0.73;0.40;;;;;;;17.74;100.00;98408.72;5019680;28;20021;-62
2023/05/10 09:34:32;;;;;;;0.20;0.20;;;;;;;18.29;100.00;98411.38;5010357;28;20492;-61
2023/05/10 09:37:04;;;;;;;1.45;0.20;;;;;;;19.44;100.00;98402.31;5018077;28;20029;-62
2023/05/10 09:39:38;;;;;;;1.02;0.30;;;;;;;20.23;100.00;98409.31;5023663;28;20017;-62
2023/05/10 09:42:06;;;;;;;2.13;0.52;;;;;;;20.69;100.00;98411.16;5008388;28;20073;-62
2023/05/10 09:44:33;;;;;;;1.20;0.25;;;;;;;19.79;100.00;98411.75;5029938;28;20029;-62
2023/05/10 09:47:00;;;;;;;0.57;0.30;;;;;;;20.42;100.00;98416.97;5011301;28;20029;-53
2023/05/10 09:49:26;;;;;;;0.77;0.20;;;;;;;19.91;100.00;98418.66;5012679;28;20025;-53
2023/05/10 09:52:02;;;;;;;0.68;0.40;;;;;;;19.59;100.00;98409.78;5037385;28;20376;-53
2023/05/10 09:54:27;;;;;;;1.00;0.30;;;;;;;19.37;100.00;98407.28;5037960;28;20679;-53
2023/05/10 09:56:52;;;;;;;0.50;0.30;;;;;;;18.33;100.00;98409.75;5011981;28;20116;-53
2023/05/10 09:59:18;;;;;;;3.22;0.60;;;;;;;17.74;100.00;98419.66;5015542;28;20061;-52
2023/05/10 10:01:49;;;;;;;1.63;0.38;;;;;;;17.30;100.00;98419.75;5011287;28;20029;-61
2023/05/10 10:04:15;;;;;;;0.77;0.40;;;;;;;18.32;100.00;98414.41;5009777;28;20132;-57
2023/05/10 10:06:40;;;;;;;0.60;0.20;;;;;;;19.30;100.00;98413.00;5030860;28;20060;-56
2023/05/10 10:09:07;;;;;;;1.83;0.30;;;;;;;20.02;100.00;98415.91;5019137;28;20083;-56
2023/05/10 10:11:35;;;;;;;0.98;0.40;;;;;;;20.01;100.00;98420.53;5013724;28;20021;-48
2023/05/10 10:14:00;;;;;;;1.35;0.30;;;;;;;21.14;100.00;98418.44;5033953;28;20888;-48
2023/05/10 10:16:28;;;;;;;0.93;0.30;;;;;;;22.73;100.00;98414.53;5011170;28;20128;-48
2023/05/10 10:18:54;;;;;;;1.38;0.38;;;;;;;22.08;100.00;98412.91;5015387;28;20025;-48
2023/05/10 10:21:21;;;;;;;2.47;0.20;;;;;;;23.22;100.00;98399.63;5022825;28;20032;-49
2023/05/10 10:23:46;;;;;;;1.92;0.30;;;;;;;21.75;100.00;98411.78;5024401;28;20426;-49
2023/05/10 10:26:12;;;;;;;0.65;0.30;;;;;;;21.13;100.00;98405.78;5016450;28;20400;-57
2023/05/10 10:28:52;;;;;;;0.10;0.10;;;;;;;20.54;100.00;98406.50;5012691;28;20029;-57
2023/05/10 10:31:32;;;;;;;0.30;0.30;;;;;;;21.20;100.00;98411.81;5028167;28;20117;-61
2023/05/10 10:34:03;;;;;;;0.25;0.20;;;;;;;20.66;100.00;98412.53;5005854;28;20037;-52
2023/05/10 10:36:30;;;;;;;0.38;0.30;;;;;;;19.85;100.00;98416.97;5027028;28;20116;-62
2023/05/10 10:38:59;;;;;;;3.67;0.60;;;;;;;18.54;100.00;98419.75;5025687;28;20080;-51
2023/05/10 10:41:35;;;;;;;1.75;0.40;;;;;;;17.82;100.00;98425.78;5012084;28;20132;-51
2023/05/10 10:44:26;;;;;;;0.63;0.30;;;;;;;17.45;100.00;98423.75;5023772;28;20034;-61
2023/05/10 10:47:18;;;;;;;1.02;0.28;;;;;;;17.35;100.00;98426.38;5018488;28;20035;-61
2023/05/10 10:49:51;;;;;;;4.20;0.40;;;;;;;17.66;100.00;98428.34;5019499;28;20130;-62
2023/05/10 10:52:33;;;;;;;2.40;0.60;;;;;;;18.26;100.00;98414.63;5028027;28;20515;-62
2023/05/10 10:55:10;;;;;;;0.95;0.40;;;;;;;18.96;100.00;98415.34;5027499;28;20045;-63
2023/05/10 10:57:59;;;;;;;0.30;0.22;;;;;;;20.15;100.00;98418.09;5022850;28;20475;-52
2023/05/10 11:00:28;;;;;;;0.45;0.30;;;;;;;21.22;100.00;98415.09;5032440;28;20112;-62
2023/05/10 11:03:01;;;;;;;0.70;0.20;;;;;;;22.27;100.00;98417.75;5018554;28;20481;-53
2023/05/10 11:05:34;;;;;;;0.63;0.28;;;;;;;22.67;100.00;98416.53;5012161;28;20095;-53
2023/05/10 11:08:07;;;;;;;1.10;0.30;;;;;;;22.68;100.00;98412.63;5012756;28;20037;-62
2023/05/10 11:10:33;;;;;;;0.43;0.30;;;;;;;22.08;100.00;98420.34;5019824;28;20024;-52
2023/05/10 11:13:09;;;;;;;1.58;0.40;;;;;;;21.17;100.00;98428.88;5030783;28;20025;-61
2023/05/10 11:15:35;;;;;;;1.63;0.30;;;;;;;20.36;100.00;98421.66;5008898;28;20036;-51
2023/05/10 11:18:22;;;;;;;0.20;0.20;;;;;;;18.92;100.00;98420.53;5013816;28;20435;-60
2023/05/10 11:20:52;;;;;;;0.95;0.30;;;;;;;17.95;100.00;98423.44;5005341;28;20473;-51
2023/05/10 11:23:19;;;;;;;0.22;0.15;;;;;;;17.17;100.00;98428.34;5003479;28;20038;-61
2023/05/10 11:25:45;;;;;;;0.50;0.30;;;;;;;16.26;100.00;98436.91;5009944;28;20052;-60
2023/05/10 11:28:12;;;;;;;1.70;0.30;;;;;;;15.47;100.00;98435.00;5031966;28;20431;-52
2023/05/10 11:30:39;;;;;;;3.13;0.20;;;;;;;15.63;100.00;98444.28;5017063;28;20476;-61